Hill Air Force Base
KHIF : now visible

Airfield :











YOU CAN JOIN US ON...

 
LOGIN :

Register | Disclaimer

   EN    FR    IT 

 









Legend :    VFR   Marginal VFR   IFR   Intensive IFR   Very Intensive IFR
Visi :
Ceiling :
>= 8 km
>= 3000ft
5 to 8 km
1000 to 3000 ft
1500m to 5 km
500 to 1000 ft
800 to 1500m
200 to 500 ft
< 800m
< 200 ft
Symbols :   Thunderstorms  Fog  Heavy snow  Heavy precipitations  Wind > 20 kt






- Airport Elevation : 4789 ft


KHIF - Hill Air Force Base

CURRENT METAR :
  • 290858Z AUTO 06009KT 10SM FEW100 01/M05 A3004 RMK AO2 SLP172 T00071051 58007

EXPIRED METARs :
  • 290758Z AUTO 05004KT 10SM CLR 01/M05 A3006 RMK AO2 SLP179 T00111052
  • 290658Z AUTO 06003KT 10SM CLR 02/M05 A3007 RMK AO2 SLP183 T00191050 400751013

TAF TAF KHIF
Valid from the 28 at 05:00 until the 29 at 11:00 UTC


280500Z 2805/2911 15009KT 9999 VCSH BKN050 620504 QNH2996INS
BECMG 2817/2818 24009KT 9999 NSW SCT030 SCT100 QNH3010INS
BECMG 2903/2904 11009KT 9999 SCT050 QNH3005INS TX08/2822Z TNM01/2814Z LAST NO AMDS AFT 2806 NEXT 3013



MET'MAP, your aeronautical weather chart ! - Copyright ORBIFLY December 2007 - Disclaimer

ORBIFLY MET'MAP TEAM :

Programming & Development : Alexandra Zaïnal
Concept & original design : Baudouin d'Aumeries
Assistance for programming : Marc-Olivier Méhu
Technical & hardware support : Manuel Goepfert

Contact : metmap@orbifly.com




SOURCES & CREDITS :

   NOAA       Earth
Advisory